sensor_id;sensor_type;location;lat;lon;timestamp;temperature;humidity
75296;DHT22;64623;44.738;37.804;2023-08-12T00:00:42;7.57;118.99
75296;DHT22;64623;44.738;37.804;2023-08-12T00:01:45;7.58;118.99
75296;DHT22;64623;44.738;37.804;2023-08-12T00:02:47;7.58;118.99
75296;DHT22;64623;44.738;37.804;2023-08-12T00:03:51;7.57;118.99
75296;DHT22;64623;44.738;37.804;2023-08-12T00:04:54;7.55;118.99
75296;DHT22;64623;44.738;37.804;2023-08-12T00:05:58;7.57;118.99
75296;DHT22;64623;44.738;37.804;2023-08-12T00:07:03;7.55;118.99
75296;DHT22;64623;44.738;37.804;2023-08-12T00:08:06;7.56;118.99
75296;DHT22;64623;44.738;37.804;2023-08-12T00:09:09;7.67;118.99
75296;DHT22;64623;44.738;37.804;2023-08-12T00:10:14;7.53;118.99
75296;DHT22;64623;44.738;37.804;2023-08-12T00:11:17;7.55;118.99
75296;DHT22;64623;44.738;37.804;2023-08-12T00:12:20;7.53;118.99
75296;DHT22;64623;44.738;37.804;2023-08-12T00:13:23;7.54;118.99
75296;DHT22;64623;44.738;37.804;2023-08-12T00:14:26;7.53;118.99
75296;DHT22;64623;44.738;37.804;2023-08-12T00:15:29;7.52;118.99
75296;DHT22;64623;44.738;37.804;2023-08-12T00:16:31;7.50;118.99
75296;DHT22;64623;44.738;37.804;2023-08-12T00:17:34;7.50;118.99
75296;DHT22;64623;44.738;37.804;2023-08-12T00:18:59;7.52;118.99
75296;DHT22;64623;44.738;37.804;2023-08-12T00:20:04;7.52;118.99
75296;DHT22;64623;44.738;37.804;2023-08-12T00:21:13;7.50;118.99
75296;DHT22;64623;44.738;37.804;2023-08-12T00:22:16;7.50;118.99
75296;DHT22;64623;44.738;37.804;2023-08-12T00:23:19;7.50;118.99
75296;DHT22;64623;44.738;37.804;2023-08-12T00:24:22;7.52;118.99
75296;DHT22;64623;44.738;37.804;2023-08-12T00:25:24;7.50;118.99
75296;DHT22;64623;44.738;37.804;2023-08-12T00:26:27;7.55;118.99
75296;DHT22;64623;44.738;37.804;2023-08-12T00:27:36;7.56;118.99
75296;DHT22;64623;44.738;37.804;2023-08-12T00:28:40;7.58;118.99
75296;DHT22;64623;44.738;37.804;2023-08-12T00:29:43;7.59;118.99
75296;DHT22;64623;44.738;37.804;2023-08-12T00:30:48;7.56;118.99
75296;DHT22;64623;44.738;37.804;2023-08-12T00:31:51;7.59;118.99
75296;DHT22;64623;44.738;37.804;2023-08-12T00:32:54;7.57;118.99
75296;DHT22;64623;44.738;37.804;2023-08-12T00:33:57;7.59;118.99
75296;DHT22;64623;44.738;37.804;2023-08-12T00:35:00;7.58;118.99
75296;DHT22;64623;44.738;37.804;2023-08-12T00:36:04;7.58;118.99
75296;DHT22;64623;44.738;37.804;2023-08-12T00:37:07;7.58;118.99
75296;DHT22;64623;44.738;37.804;2023-08-12T00:38:10;7.59;118.99
75296;DHT22;64623;44.738;37.804;2023-08-12T00:39:13;7.57;118.99
75296;DHT22;64623;44.738;37.804;2023-08-12T00:40:17;7.57;118.99
75296;DHT22;64623;44.738;37.804;2023-08-12T00:41:20;7.54;118.99
75296;DHT22;64623;44.738;37.804;2023-08-12T00:42:23;7.55;118.99
75296;DHT22;64623;44.738;37.804;2023-08-12T00:43:26;7.59;118.99
75296;DHT22;64623;44.738;37.804;2023-08-12T00:44:29;7.58;118.99
75296;DHT22;64623;44.738;37.804;2023-08-12T00:45:33;7.59;118.99
75296;DHT22;64623;44.738;37.804;2023-08-12T00:46:38;7.57;118.99
75296;DHT22;64623;44.738;37.804;2023-08-12T00:47:41;7.58;118.99
75296;DHT22;64623;44.738;37.804;2023-08-12T00:48:44;7.56;118.99
75296;DHT22;64623;44.738;37.804;2023-08-12T00:49:48;7.56;118.99
75296;DHT22;64623;44.738;37.804;2023-08-12T00:50:51;7.57;118.99
75296;DHT22;64623;44.738;37.804;2023-08-12T00:51:55;7.56;118.99
75296;DHT22;64623;44.738;37.804;2023-08-12T00:52:58;7.55;118.99
75296;DHT22;64623;44.738;37.804;2023-08-12T00:54:04;7.55;118.99
75296;DHT22;64623;44.738;37.804;2023-08-12T00:55:07;7.54;118.99
75296;DHT22;64623;44.738;37.804;2023-08-12T00:56:11;7.54;118.99
75296;DHT22;64623;44.738;37.804;2023-08-12T00:57:14;7.54;118.99
75296;DHT22;64623;44.738;37.804;2023-08-12T00:58:17;7.54;118.99
75296;DHT22;64623;44.738;37.804;2023-08-12T00:59:20;7.54;118.99
75296;DHT22;64623;44.738;37.804;2023-08-12T01:00:25;7.55;118.99
75296;DHT22;64623;44.738;37.804;2023-08-12T01:01:28;7.53;118.99
75296;DHT22;64623;44.738;37.804;2023-08-12T01:02:32;7.54;118.99
75296;DHT22;64623;44.738;37.804;2023-08-12T01:03:35;7.52;118.99
75296;DHT22;64623;44.738;37.804;2023-08-12T01:04:39;7.54;118.99
75296;DHT22;64623;44.738;37.804;2023-08-12T01:05:43;7.52;118.99
75296;DHT22;64623;44.738;37.804;2023-08-12T01:06:46;7.52;118.99
75296;DHT22;64623;44.738;37.804;2023-08-12T01:07:49;7.49;118.99
75296;DHT22;64623;44.738;37.804;2023-08-12T01:08:53;7.48;118.99
75296;DHT22;64623;44.738;37.804;2023-08-12T01:09:56;7.48;118.99
75296;DHT22;64623;44.738;37.804;2023-08-12T01:11:11;7.46;118.99
75296;DHT22;64623;44.738;37.804;2023-08-12T01:16:08;7.44;118.99
75296;DHT22;64623;44.738;37.804;2023-08-12T01:17:14;7.44;118.99
75296;DHT22;64623;44.738;37.804;2023-08-12T01:18:19;7.45;118.99
75296;DHT22;64623;44.738;37.804;2023-08-12T01:19:35;7.45;118.99
75296;DHT22;64623;44.738;37.804;2023-08-12T01:20:39;7.44;118.99
75296;DHT22;64623;44.738;37.804;2023-08-12T01:21:44;7.46;118.99
75296;DHT22;64623;44.738;37.804;2023-08-12T01:22:48;7.44;118.99
75296;DHT22;64623;44.738;37.804;2023-08-12T01:23:52;7.45;118.99
75296;DHT22;64623;44.738;37.804;2023-08-12T01:24:57;7.45;118.99
75296;DHT22;64623;44.738;37.804;2023-08-12T01:26:00;7.45;118.99
75296;DHT22;64623;44.738;37.804;2023-08-12T01:27:04;7.46;118.99
75296;DHT22;64623;44.738;37.804;2023-08-12T01:28:07;7.45;118.99
75296;DHT22;64623;44.738;37.804;2023-08-12T01:29:11;7.45;118.99
75296;DHT22;64623;44.738;37.804;2023-08-12T01:30:15;7.45;118.99
75296;DHT22;64623;44.738;37.804;2023-08-12T01:31:50;7.46;118.99
75296;DHT22;64623;44.738;37.804;2023-08-12T01:33:09;7.44;118.99
75296;DHT22;64623;44.738;37.804;2023-08-12T01:34:24;7.45;118.99
75296;DHT22;64623;44.738;37.804;2023-08-12T01:35:49;7.46;118.99
75296;DHT22;64623;44.738;37.804;2023-08-12T01:36:56;7.45;118.99
75296;DHT22;64623;44.738;37.804;2023-08-12T01:38:02;7.44;118.99
75296;DHT22;64623;44.738;37.804;2023-08-12T01:39:08;7.45;118.99
75296;DHT22;64623;44.738;37.804;2023-08-12T01:40:15;7.46;118.99
75296;DHT22;64623;44.738;37.804;2023-08-12T01:41:19;7.47;118.99
75296;DHT22;64623;44.738;37.804;2023-08-12T01:42:25;7.47;118.99
75296;DHT22;64623;44.738;37.804;2023-08-12T01:43:29;7.48;118.99
75296;DHT22;64623;44.738;37.804;2023-08-12T01:44:32;7.48;118.99
75296;DHT22;64623;44.738;37.804;2023-08-12T01:45:35;7.49;118.99
75296;DHT22;64623;44.738;37.804;2023-08-12T01:46:38;7.50;118.99
75296;DHT22;64623;44.738;37.804;2023-08-12T01:47:44;7.50;118.99
75296;DHT22;64623;44.738;37.804;2023-08-12T01:48:47;7.52;118.99
75296;DHT22;64623;44.738;37.804;2023-08-12T01:49:52;7.50;118.99
75296;DHT22;64623;44.738;37.804;2023-08-12T01:50:54;7.52;118.99
75296;DHT22;64623;44.738;37.804;2023-08-12T01:51:57;7.52;118.99
75296;DHT22;64623;44.738;37.804;2023-08-12T01:53:00;7.54;118.99
75296;DHT22;64623;44.738;37.804;2023-08-12T01:54:04;7.53;118.99
75296;DHT22;64623;44.738;37.804;2023-08-12T01:55:08;7.49;118.99
75296;DHT22;64623;44.738;37.804;2023-08-12T01:56:11;7.49;118.99
75296;DHT22;64623;44.738;37.804;2023-08-12T01:57:14;7.45;118.99
75296;DHT22;64623;44.738;37.804;2023-08-12T01:58:17;7.44;118.99
75296;DHT22;64623;44.738;37.804;2023-08-12T01:59:20;7.46;118.99
75296;DHT22;64623;44.738;37.804;2023-08-12T02:00:22;7.43;118.99
75296;DHT22;64623;44.738;37.804;2023-08-12T02:01:26;7.44;118.99
75296;DHT22;64623;44.738;37.804;2023-08-12T02:02:28;7.44;118.99
75296;DHT22;64623;44.738;37.804;2023-08-12T02:03:31;7.42;118.99
75296;DHT22;64623;44.738;37.804;2023-08-12T02:04:34;7.43;118.99
75296;DHT22;64623;44.738;37.804;2023-08-12T02:05:39;7.42;118.99
75296;DHT22;64623;44.738;37.804;2023-08-12T02:06:43;7.42;118.99
75296;DHT22;64623;44.738;37.804;2023-08-12T02:07:46;7.41;118.99
75296;DHT22;64623;44.738;37.804;2023-08-12T02:08:49;7.40;118.99
75296;DHT22;64623;44.738;37.804;2023-08-12T02:09:53;7.42;118.99
75296;DHT22;64623;44.738;37.804;2023-08-12T02:10:55;7.42;118.99
75296;DHT22;64623;44.738;37.804;2023-08-12T02:11:58;7.42;118.99
75296;DHT22;64623;44.738;37.804;2023-08-12T02:13:02;7.41;118.99
75296;DHT22;64623;44.738;37.804;2023-08-12T02:14:05;7.43;118.99
75296;DHT22;64623;44.738;37.804;2023-08-12T02:15:08;7.45;118.99
75296;DHT22;64623;44.738;37.804;2023-08-12T02:16:11;7.46;118.99
75296;DHT22;64623;44.738;37.804;2023-08-12T02:17:34;7.42;118.99
75296;DHT22;64623;44.738;37.804;2023-08-12T02:18:37;7.43;118.99
75296;DHT22;64623;44.738;37.804;2023-08-12T02:19:41;7.43;118.99
75296;DHT22;64623;44.738;37.804;2023-08-12T02:20:46;7.43;118.99
75296;DHT22;64623;44.738;37.804;2023-08-12T02:21:49;7.42;118.99
75296;DHT22;64623;44.738;37.804;2023-08-12T02:22:51;7.42;118.99
75296;DHT22;64623;44.738;37.804;2023-08-12T02:23:54;7.40;118.99
75296;DHT22;64623;44.738;37.804;2023-08-12T02:24:57;7.40;118.99
75296;DHT22;64623;44.738;37.804;2023-08-12T02:26:02;7.40;118.99
75296;DHT22;64623;44.738;37.804;2023-08-12T02:27:05;7.38;118.99
75296;DHT22;64623;44.738;37.804;2023-08-12T02:28:08;7.38;118.99
75296;DHT22;64623;44.738;37.804;2023-08-12T02:29:11;7.37;118.99
75296;DHT22;64623;44.738;37.804;2023-08-12T02:30:14;7.34;118.99
75296;DHT22;64623;44.738;37.804;2023-08-12T02:31:17;7.34;118.99
75296;DHT22;64623;44.738;37.804;2023-08-12T02:32:20;7.34;118.99
75296;DHT22;64623;44.738;37.804;2023-08-12T02:33:22;7.35;118.99
75296;DHT22;64623;44.738;37.804;2023-08-12T02:34:25;7.32;118.99
75296;DHT22;64623;44.738;37.804;2023-08-12T02:35:28;7.32;118.99
75296;DHT22;64623;44.738;37.804;2023-08-12T02:36:31;7.31;118.99
75296;DHT22;64623;44.738;37.804;2023-08-12T02:37:34;7.33;118.99
75296;DHT22;64623;44.738;37.804;2023-08-12T02:38:37;7.32;118.99
75296;DHT22;64623;44.738;37.804;2023-08-12T02:39:40;7.31;118.99
75296;DHT22;64623;44.738;37.804;2023-08-12T02:40:43;7.30;118.99
75296;DHT22;64623;44.738;37.804;2023-08-12T02:41:46;7.28;118.99
75296;DHT22;64623;44.738;37.804;2023-08-12T02:42:49;7.27;118.99
75296;DHT22;64623;44.738;37.804;2023-08-12T02:43:53;7.26;118.99
75296;DHT22;64623;44.738;37.804;2023-08-12T02:44:56;7.26;118.99
75296;DHT22;64623;44.738;37.804;2023-08-12T02:45:59;7.27;118.99
75296;DHT22;64623;44.738;37.804;2023-08-12T02:47:01;7.26;118.99
75296;DHT22;64623;44.738;37.804;2023-08-12T02:48:05;7.25;118.99
75296;DHT22;64623;44.738;37.804;2023-08-12T02:49:08;7.26;118.99
75296;DHT22;64623;44.738;37.804;2023-08-12T02:50:11;7.24;118.99
75296;DHT22;64623;44.738;37.804;2023-08-12T02:51:14;7.27;118.99
75296;DHT22;64623;44.738;37.804;2023-08-12T02:52:16;7.28;118.99
75296;DHT22;64623;44.738;37.804;2023-08-12T02:53:19;7.29;118.99
75296;DHT22;64623;44.738;37.804;2023-08-12T02:54:22;7.30;118.99
75296;DHT22;64623;44.738;37.804;2023-08-12T02:55:25;7.28;118.99
75296;DHT22;64623;44.738;37.804;2023-08-12T02:56:28;7.30;118.99
75296;DHT22;64623;44.738;37.804;2023-08-12T02:57:31;7.31;118.99
75296;DHT22;64623;44.738;37.804;2023-08-12T02:58:34;7.31;118.99
75296;DHT22;64623;44.738;37.804;2023-08-12T02:59:36;7.29;118.99
75296;DHT22;64623;44.738;37.804;2023-08-12T03:00:42;7.30;118.99
75296;DHT22;64623;44.738;37.804;2023-08-12T03:01:48;7.30;118.99
75296;DHT22;64623;44.738;37.804;2023-08-12T03:02:51;7.31;118.99
75296;DHT22;64623;44.738;37.804;2023-08-12T03:03:54;7.28;118.99
75296;DHT22;64623;44.738;37.804;2023-08-12T03:04:57;7.29;118.99
75296;DHT22;64623;44.738;37.804;2023-08-12T03:05:59;7.26;118.99
75296;DHT22;64623;44.738;37.804;2023-08-12T03:07:04;7.27;118.99
75296;DHT22;64623;44.738;37.804;2023-08-12T03:08:07;7.28;118.99
75296;DHT22;64623;44.738;37.804;2023-08-12T03:09:11;7.27;118.99
75296;DHT22;64623;44.738;37.804;2023-08-12T03:10:15;7.27;118.99
75296;DHT22;64623;44.738;37.804;2023-08-12T03:11:18;7.25;118.99
75296;DHT22;64623;44.738;37.804;2023-08-12T03:12:21;7.25;118.99
75296;DHT22;64623;44.738;37.804;2023-08-12T03:13:24;7.23;118.99
75296;DHT22;64623;44.738;37.804;2023-08-12T03:14:28;7.26;118.99
75296;DHT22;64623;44.738;37.804;2023-08-12T03:15:34;7.26;118.99
75296;DHT22;64623;44.738;37.804;2023-08-12T03:16:36;7.29;118.99
75296;DHT22;64623;44.738;37.804;2023-08-12T03:17:39;7.26;118.99
75296;DHT22;64623;44.738;37.804;2023-08-12T03:18:43;7.30;118.99
75296;DHT22;64623;44.738;37.804;2023-08-12T03:19:46;7.32;118.99
75296;DHT22;64623;44.738;37.804;2023-08-12T03:20:49;7.32;118.99
75296;DHT22;64623;44.738;37.804;2023-08-12T03:21:52;7.32;118.99
75296;DHT22;64623;44.738;37.804;2023-08-12T03:22:56;7.34;118.99
75296;DHT22;64623;44.738;37.804;2023-08-12T03:23:59;7.34;118.99
75296;DHT22;64623;44.738;37.804;2023-08-12T03:25:04;7.37;118.99
75296;DHT22;64623;44.738;37.804;2023-08-12T03:26:08;7.34;118.99
75296;DHT22;64623;44.738;37.804;2023-08-12T03:27:11;7.35;118.99
75296;DHT22;64623;44.738;37.804;2023-08-12T03:28:14;7.35;118.99
75296;DHT22;64623;44.738;37.804;2023-08-12T03:29:17;7.37;118.99
75296;DHT22;64623;44.738;37.804;2023-08-12T03:30:22;7.38;118.99
75296;DHT22;64623;44.738;37.804;2023-08-12T03:31:25;7.41;118.99
75296;DHT22;64623;44.738;37.804;2023-08-12T03:32:28;7.43;118.99
75296;DHT22;64623;44.738;37.804;2023-08-12T03:33:31;7.47;118.99
75296;DHT22;64623;44.738;37.804;2023-08-12T03:34:37;7.47;118.99
75296;DHT22;64623;44.738;37.804;2023-08-12T03:35:45;7.52;118.99
75296;DHT22;64623;44.738;37.804;2023-08-12T03:36:50;7.52;118.99
75296;DHT22;64623;44.738;37.804;2023-08-12T03:37:54;7.53;118.99
75296;DHT22;64623;44.738;37.804;2023-08-12T03:39:02;7.52;118.99
75296;DHT22;64623;44.738;37.804;2023-08-12T03:40:06;7.54;118.99
75296;DHT22;64623;44.738;37.804;2023-08-12T03:41:11;7.55;118.99
75296;DHT22;64623;44.738;37.804;2023-08-12T03:42:14;7.56;118.99
75296;DHT22;64623;44.738;37.804;2023-08-12T03:43:19;7.58;118.99
75296;DHT22;64623;44.738;37.804;2023-08-12T03:44:23;7.59;118.99
75296;DHT22;64623;44.738;37.804;2023-08-12T03:45:26;7.59;118.99
75296;DHT22;64623;44.738;37.804;2023-08-12T03:46:29;7.63;118.99
75296;DHT22;64623;44.738;37.804;2023-08-12T03:47:32;7.65;118.99
75296;DHT22;64623;44.738;37.804;2023-08-12T03:48:36;7.70;118.99
75296;DHT22;64623;44.738;37.804;2023-08-12T03:49:39;7.74;118.99
75296;DHT22;64623;44.738;37.804;2023-08-12T03:50:42;7.77;118.99
75296;DHT22;64623;44.738;37.804;2023-08-12T03:51:45;7.76;118.99
75296;DHT22;64623;44.738;37.804;2023-08-12T03:52:48;7.79;118.99
75296;DHT22;64623;44.738;37.804;2023-08-12T03:53:51;7.79;118.99
75296;DHT22;64623;44.738;37.804;2023-08-12T03:54:54;7.82;118.99
75296;DHT22;64623;44.738;37.804;2023-08-12T03:55:57;7.83;118.99
75296;DHT22;64623;44.738;37.804;2023-08-12T03:57:00;7.84;118.99
75296;DHT22;64623;44.738;37.804;2023-08-12T03:58:03;7.88;118.99
75296;DHT22;64623;44.738;37.804;2023-08-12T03:59:07;7.88;118.99
75296;DHT22;64623;44.738;37.804;2023-08-12T04:00:11;7.93;118.99
75296;DHT22;64623;44.738;37.804;2023-08-12T04:01:17;7.97;118.99
75296;DHT22;64623;44.738;37.804;2023-08-12T04:02:20;7.99;118.99
75296;DHT22;64623;44.738;37.804;2023-08-12T04:03:22;8.02;118.99
75296;DHT22;64623;44.738;37.804;2023-08-12T04:04:25;8.04;118.99
75296;DHT22;64623;44.738;37.804;2023-08-12T04:05:28;8.04;118.99
75296;DHT22;64623;44.738;37.804;2023-08-12T04:06:31;8.04;118.99
75296;DHT22;64623;44.738;37.804;2023-08-12T04:07:35;8.06;118.99
75296;DHT22;64623;44.738;37.804;2023-08-12T04:08:38;8.08;118.99
75296;DHT22;64623;44.738;37.804;2023-08-12T04:09:41;8.07;118.99
75296;DHT22;64623;44.738;37.804;2023-08-12T04:10:45;8.14;118.99
75296;DHT22;64623;44.738;37.804;2023-08-12T04:11:48;8.19;118.99
75296;DHT22;64623;44.738;37.804;2023-08-12T04:12:51;8.19;118.99
75296;DHT22;64623;44.738;37.804;2023-08-12T04:13:54;8.23;118.99
75296;DHT22;64623;44.738;37.804;2023-08-12T04:14:57;8.29;118.99
75296;DHT22;64623;44.738;37.804;2023-08-12T04:16:00;8.29;118.99
75296;DHT22;64623;44.738;37.804;2023-08-12T04:17:23;8.36;118.99
75296;DHT22;64623;44.738;37.804;2023-08-12T04:18:26;8.36;118.99
75296;DHT22;64623;44.738;37.804;2023-08-12T04:19:32;8.43;118.99
75296;DHT22;64623;44.738;37.804;2023-08-12T04:20:38;8.43;118.99
75296;DHT22;64623;44.738;37.804;2023-08-12T04:21:41;8.44;118.99
75296;DHT22;64623;44.738;37.804;2023-08-12T04:22:49;8.52;118.99
75296;DHT22;64623;44.738;37.804;2023-08-12T04:23:52;8.55;118.99
75296;DHT22;64623;44.738;37.804;2023-08-12T04:24:54;8.57;118.99
75296;DHT22;64623;44.738;37.804;2023-08-12T04:25:57;8.62;118.99
75296;DHT22;64623;44.738;37.804;2023-08-12T04:27:02;8.65;118.99
75296;DHT22;64623;44.738;37.804;2023-08-12T04:28:05;8.71;118.99
75296;DHT22;64623;44.738;37.804;2023-08-12T04:29:12;8.74;118.99
75296;DHT22;64623;44.738;37.804;2023-08-12T04:30:17;8.80;118.99
75296;DHT22;64623;44.738;37.804;2023-08-12T04:31:20;8.83;118.99
75296;DHT22;64623;44.738;37.804;2023-08-12T04:32:24;8.87;118.99
75296;DHT22;64623;44.738;37.804;2023-08-12T04:33:27;8.86;118.99
75296;DHT22;64623;44.738;37.804;2023-08-12T04:34:29;8.89;118.99
75296;DHT22;64623;44.738;37.804;2023-08-12T04:35:32;8.92;118.99
75296;DHT22;64623;44.738;37.804;2023-08-12T04:36:36;8.94;118.99
75296;DHT22;64623;44.738;37.804;2023-08-12T04:38:00;9.00;118.99
75296;DHT22;64623;44.738;37.804;2023-08-12T04:39:03;9.02;118.99
75296;DHT22;64623;44.738;37.804;2023-08-12T04:40:07;9.04;118.99
75296;DHT22;64623;44.738;37.804;2023-08-12T04:41:11;9.08;118.99
75296;DHT22;64623;44.738;37.804;2023-08-12T04:42:14;9.16;118.99
75296;DHT22;64623;44.738;37.804;2023-08-12T04:43:17;9.20;118.99
75296;DHT22;64623;44.738;37.804;2023-08-12T04:44:40;9.30;118.99
75296;DHT22;64623;44.738;37.804;2023-08-12T04:45:46;9.33;118.99
75296;DHT22;64623;44.738;37.804;2023-08-12T04:46:52;9.35;118.99
75296;DHT22;64623;44.738;37.804;2023-08-12T04:47:57;9.41;118.99
75296;DHT22;64623;44.738;37.804;2023-08-12T04:49:02;9.45;118.99
75296;DHT22;64623;44.738;37.804;2023-08-12T04:50:05;9.50;118.99
75296;DHT22;64623;44.738;37.804;2023-08-12T04:51:09;9.53;118.99
75296;DHT22;64623;44.738;37.804;2023-08-12T04:52:12;9.54;118.99
75296;DHT22;64623;44.738;37.804;2023-08-12T04:53:15;9.55;118.99
75296;DHT22;64623;44.738;37.804;2023-08-12T04:54:19;9.59;118.99
75296;DHT22;64623;44.738;37.804;2023-08-12T04:55:25;9.61;118.99
75296;DHT22;64623;44.738;37.804;2023-08-12T04:56:28;9.62;118.99
75296;DHT22;64623;44.738;37.804;2023-08-12T04:57:35;9.64;118.99
75296;DHT22;64623;44.738;37.804;2023-08-12T04:58:38;9.69;118.99
75296;DHT22;64623;44.738;37.804;2023-08-12T04:59:41;9.72;118.99
75296;DHT22;64623;44.738;37.804;2023-08-12T05:00:44;9.78;118.99
75296;DHT22;64623;44.738;37.804;2023-08-12T05:01:47;9.82;118.99
75296;DHT22;64623;44.738;37.804;2023-08-12T05:03:00;9.88;118.99
75296;DHT22;64623;44.738;37.804;2023-08-12T05:04:09;9.90;118.99
75296;DHT22;64623;44.738;37.804;2023-08-12T05:05:13;9.93;118.99
75296;DHT22;64623;44.738;37.804;2023-08-12T05:06:18;10.01;118.99
75296;DHT22;64623;44.738;37.804;2023-08-12T05:07:21;10.05;118.99
75296;DHT22;64623;44.738;37.804;2023-08-12T05:08:25;10.08;118.99
75296;DHT22;64623;44.738;37.804;2023-08-12T05:09:48;10.09;118.99
75296;DHT22;64623;44.738;37.804;2023-08-12T05:10:51;10.05;118.99
75296;DHT22;64623;44.738;37.804;2023-08-12T05:11:55;10.04;118.99
75296;DHT22;64623;44.738;37.804;2023-08-12T05:13:22;10.08;118.99
75296;DHT22;64623;44.738;37.804;2023-08-12T05:14:26;10.14;118.99
75296;DHT22;64623;44.738;37.804;2023-08-12T05:15:29;10.21;118.99
75296;DHT22;64623;44.738;37.804;2023-08-12T05:16:32;10.24;118.99
75296;DHT22;64623;44.738;37.804;2023-08-12T05:17:35;10.29;118.99
75296;DHT22;64623;44.738;37.804;2023-08-12T05:18:38;10.37;118.99
75296;DHT22;64623;44.738;37.804;2023-08-12T05:19:41;10.43;118.99
75296;DHT22;64623;44.738;37.804;2023-08-12T05:20:44;10.46;118.99
75296;DHT22;64623;44.738;37.804;2023-08-12T05:21:48;10.50;118.99
75296;DHT22;64623;44.738;37.804;2023-08-12T05:22:51;10.49;118.99
75296;DHT22;64623;44.738;37.804;2023-08-12T05:23:54;10.49;118.99
75296;DHT22;64623;44.738;37.804;2023-08-12T05:24:57;10.55;118.99
75296;DHT22;64623;44.738;37.804;2023-08-12T05:26:00;10.60;118.99
75296;DHT22;64623;44.738;37.804;2023-08-12T05:27:03;10.65;118.99
75296;DHT22;64623;44.738;37.804;2023-08-12T05:28:06;10.70;118.99
75296;DHT22;64623;44.738;37.804;2023-08-12T05:29:10;10.75;118.99
75296;DHT22;64623;44.738;37.804;2023-08-12T05:30:13;10.75;118.99
75296;DHT22;64623;44.738;37.804;2023-08-12T05:31:41;10.83;118.99
75296;DHT22;64623;44.738;37.804;2023-08-12T05:32:44;10.86;118.99
75296;DHT22;64623;44.738;37.804;2023-08-12T05:33:47;10.83;118.99
75296;DHT22;64623;44.738;37.804;2023-08-12T05:34:52;10.93;118.99
75296;DHT22;64623;44.738;37.804;2023-08-12T05:35:55;10.94;118.99
75296;DHT22;64623;44.738;37.804;2023-08-12T05:36:58;10.99;118.99
75296;DHT22;64623;44.738;37.804;2023-08-12T05:38:01;11.04;118.99
75296;DHT22;64623;44.738;37.804;2023-08-12T05:39:04;11.20;118.99
75296;DHT22;64623;44.738;37.804;2023-08-12T05:40:10;11.12;118.99
75296;DHT22;64623;44.738;37.804;2023-08-12T05:41:14;11.13;118.99
75296;DHT22;64623;44.738;37.804;2023-08-12T05:42:17;11.23;118.99
75296;DHT22;64623;44.738;37.804;2023-08-12T05:43:20;11.24;118.99
75296;DHT22;64623;44.738;37.804;2023-08-12T05:44:22;11.28;118.99
75296;DHT22;64623;44.738;37.804;2023-08-12T05:45:25;11.33;118.99
75296;DHT22;64623;44.738;37.804;2023-08-12T05:46:28;11.29;118.99
75296;DHT22;64623;44.738;37.804;2023-08-12T05:47:31;11.28;118.99
75296;DHT22;64623;44.738;37.804;2023-08-12T05:48:35;11.29;118.99
75296;DHT22;64623;44.738;37.804;2023-08-12T05:49:37;11.28;118.99
75296;DHT22;64623;44.738;37.804;2023-08-12T05:50:40;11.33;118.99
75296;DHT22;64623;44.738;37.804;2023-08-12T05:51:43;11.40;118.99
75296;DHT22;64623;44.738;37.804;2023-08-12T05:52:47;11.44;118.99
75296;DHT22;64623;44.738;37.804;2023-08-12T05:53:50;11.51;118.99
75296;DHT22;64623;44.738;37.804;2023-08-12T05:54:53;11.60;118.99
75296;DHT22;64623;44.738;37.804;2023-08-12T05:55:56;11.51;118.99
75296;DHT22;64623;44.738;37.804;2023-08-12T05:56:59;11.57;118.99
75296;DHT22;64623;44.738;37.804;2023-08-12T05:58:02;11.61;118.99
75296;DHT22;64623;44.738;37.804;2023-08-12T05:59:05;11.64;118.99
75296;DHT22;64623;44.738;37.804;2023-08-12T06:00:08;11.70;118.99
75296;DHT22;64623;44.738;37.804;2023-08-12T06:01:14;11.72;118.99
75296;DHT22;64623;44.738;37.804;2023-08-12T06:02:17;11.76;118.99
75296;DHT22;64623;44.738;37.804;2023-08-12T06:03:21;11.82;118.99
75296;DHT22;64623;44.738;37.804;2023-08-12T06:04:24;11.78;118.99
75296;DHT22;64623;44.738;37.804;2023-08-12T06:05:27;11.81;118.99
75296;DHT22;64623;44.738;37.804;2023-08-12T06:06:30;11.90;118.99
75296;DHT22;64623;44.738;37.804;2023-08-12T06:07:33;11.96;118.99
75296;DHT22;64623;44.738;37.804;2023-08-12T06:08:40;11.98;118.99
75296;DHT22;64623;44.738;37.804;2023-08-12T06:09:43;12.01;118.99
75296;DHT22;64623;44.738;37.804;2023-08-12T06:10:46;12.14;118.99
75296;DHT22;64623;44.738;37.804;2023-08-12T06:11:52;12.12;118.99
75296;DHT22;64623;44.738;37.804;2023-08-12T06:12:56;12.15;118.99
75296;DHT22;64623;44.738;37.804;2023-08-12T06:13:59;12.17;118.99
75296;DHT22;64623;44.738;37.804;2023-08-12T06:15:02;12.18;118.99
75296;DHT22;64623;44.738;37.804;2023-08-12T06:16:05;12.18;118.99
75296;DHT22;64623;44.738;37.804;2023-08-12T06:17:12;12.30;118.99
75296;DHT22;64623;44.738;37.804;2023-08-12T06:18:36;12.40;118.99
75296;DHT22;64623;44.738;37.804;2023-08-12T06:19:39;12.42;118.99
75296;DHT22;64623;44.738;37.804;2023-08-12T06:21:02;12.44;118.99
75296;DHT22;64623;44.738;37.804;2023-08-12T06:22:10;12.46;118.99
75296;DHT22;64623;44.738;37.804;2023-08-12T06:23:37;12.53;118.99
75296;DHT22;64623;44.738;37.804;2023-08-12T06:24:40;12.63;118.99
75296;DHT22;64623;44.738;37.804;2023-08-12T06:25:43;12.67;118.99
75296;DHT22;64623;44.738;37.804;2023-08-12T06:26:46;12.74;118.99
75296;DHT22;64623;44.738;37.804;2023-08-12T06:27:49;12.84;118.99
75296;DHT22;64623;44.738;37.804;2023-08-12T06:28:52;12.85;118.99
75296;DHT22;64623;44.738;37.804;2023-08-12T06:29:55;12.90;118.99
75296;DHT22;64623;44.738;37.804;2023-08-12T06:30:58;13.00;118.99
75296;DHT22;64623;44.738;37.804;2023-08-12T06:32:21;13.04;118.99
75296;DHT22;64623;44.738;37.804;2023-08-12T06:33:44;13.11;118.99
75296;DHT22;64623;44.738;37.804;2023-08-12T06:34:47;13.18;118.99
75296;DHT22;64623;44.738;37.804;2023-08-12T06:35:50;13.17;118.99
75296;DHT22;64623;44.738;37.804;2023-08-12T06:36:54;13.16;118.99
75296;DHT22;64623;44.738;37.804;2023-08-12T06:37:56;13.14;118.99
75296;DHT22;64623;44.738;37.804;2023-08-12T06:38:59;13.14;118.99
75296;DHT22;64623;44.738;37.804;2023-08-12T06:40:03;13.22;118.99
75296;DHT22;64623;44.738;37.804;2023-08-12T06:41:06;13.30;118.99
75296;DHT22;64623;44.738;37.804;2023-08-12T06:42:09;13.37;118.99
75296;DHT22;64623;44.738;37.804;2023-08-12T06:43:12;13.35;118.99
75296;DHT22;64623;44.738;37.804;2023-08-12T06:44:39;13.43;118.99